createdAt,value
2022-11-19T00:00:46.838Z,58.06
2022-11-19T00:03:14.292Z,57.40
2022-11-19T00:05:41.888Z,57.88
2022-11-19T00:08:09.447Z,57.74
2022-11-19T00:10:38.281Z,57.78
2022-11-19T00:13:05.331Z,57.71
2022-11-19T00:15:34.414Z,57.99
2022-11-19T00:18:01.910Z,58.01
2022-11-19T00:20:29.508Z,57.85
2022-11-19T00:22:57.830Z,57.96
2022-11-19T00:25:26.003Z,57.62
2022-11-19T00:27:54.777Z,57.49
2022-11-19T00:30:46.299Z,57.83
2022-11-19T00:33:09.632Z,57.65
2022-11-19T00:37:56.840Z,57.68
2022-11-19T00:40:24.353Z,57.79
2022-11-19T00:43:05.827Z,57.74
2022-11-19T00:45:34.682Z,57.74
2022-11-19T00:48:02.201Z,57.59
2022-11-19T00:50:29.733Z,57.56
2022-11-19T00:52:57.206Z,57.66
2022-11-19T00:55:24.662Z,57.71
2022-11-19T00:57:52.118Z,57.67
2022-11-19T01:00:19.731Z,57.65
2022-11-19T01:02:48.515Z,57.54
2022-11-19T01:05:16.047Z,57.58
2022-11-19T01:07:43.565Z,57.73
2022-11-19T01:10:11.076Z,57.76
2022-11-19T01:12:59.329Z,57.68
2022-11-19T01:15:26.870Z,57.57
2022-11-19T01:17:55.649Z,57.59
2022-11-19T01:20:23.178Z,57.37
2022-11-19T01:22:50.726Z,57.54
2022-11-19T01:25:18.273Z,57.61
2022-11-19T01:27:45.726Z,57.55
2022-11-19T01:30:13.535Z,57.71
2022-11-19T01:32:41.013Z,57.41
2022-11-19T01:35:10.349Z,57.58
2022-11-19T01:37:37.829Z,57.41
2022-11-19T01:40:06.441Z,57.53
2022-11-19T01:42:53.848Z,57.52
2022-11-19T01:45:33.229Z,57.27
2022-11-19T01:48:01.940Z,57.47
2022-11-19T01:50:30.956Z,57.48
2022-11-19T01:52:58.416Z,57.20
2022-11-19T01:55:26.040Z,57.71
2022-11-19T01:57:55.177Z,57.30
2022-11-19T02:00:23.078Z,57.38
2022-11-19T02:02:50.586Z,57.58
2022-11-19T02:05:18.111Z,57.39
2022-11-19T02:07:50.318Z,57.48
2022-11-19T02:10:17.905Z,57.44
2022-11-19T02:12:46.953Z,57.45
2022-11-19T02:15:18.680Z,57.24
2022-11-19T02:18:07.108Z,57.35
2022-11-19T02:20:45.549Z,57.11
2022-11-19T02:23:46.380Z,57.27
2022-11-19T02:26:33.851Z,57.17
2022-11-19T02:29:06.340Z,57.31
2022-11-19T02:31:36.845Z,57.22
2022-11-19T02:34:08.833Z,57.34
2022-11-19T02:36:38.900Z,57.49
2022-11-19T02:39:07.648Z,57.29
2022-11-19T02:41:37.094Z,57.26
2022-11-19T02:44:27.196Z,57.27
2022-11-19T02:46:55.800Z,57.31
2022-11-19T02:49:24.763Z,57.44
2022-11-19T02:51:52.208Z,57.36
2022-11-19T02:54:19.638Z,57.29
2022-11-19T02:56:49.681Z,57.19
2022-11-19T02:59:35.263Z,57.26
2022-11-19T03:02:21.715Z,57.31
2022-11-19T03:04:49.161Z,57.41
2022-11-19T03:07:18.391Z,57.30
2022-11-19T03:09:48.080Z,57.01
2022-11-19T03:12:19.812Z,57.15
2022-11-19T03:15:10.182Z,57.31
2022-11-19T03:17:52.216Z,57.29
2022-11-19T03:20:22.023Z,57.19
2022-11-19T03:22:51.220Z,57.13
2022-11-19T03:25:20.917Z,57.19
2022-11-19T03:27:49.380Z,57.29
2022-11-19T03:30:17.449Z,57.25
2022-11-19T03:32:48.688Z,57.15
2022-11-19T03:35:17.092Z,57.12
2022-11-19T03:37:44.840Z,57.08
2022-11-19T03:40:12.741Z,57.15
2022-11-19T03:42:40.234Z,56.84
2022-11-19T03:45:11.044Z,56.88
2022-11-19T03:47:39.489Z,56.78
2022-11-19T03:50:11.686Z,56.92
2022-11-19T03:52:39.129Z,56.88
2022-11-19T03:55:07.013Z,57.12
2022-11-19T03:57:34.688Z,56.96
2022-11-19T04:00:02.130Z,56.85
2022-11-19T04:02:29.569Z,57.01
2022-11-19T04:04:56.996Z,56.79
2022-11-19T04:07:25.851Z,56.77
2022-11-19T04:09:53.348Z,56.82
2022-11-19T04:12:21.580Z,56.79
2022-11-19T04:14:49.231Z,56.85
2022-11-19T04:17:16.908Z,56.91
2022-11-19T04:19:44.473Z,56.64
2022-11-19T04:22:12.128Z,56.80
2022-11-19T04:24:40.893Z,56.63
2022-11-19T04:27:08.347Z,56.55
2022-11-19T04:29:35.774Z,56.64
2022-11-19T04:32:03.237Z,56.50
2022-11-19T04:34:30.667Z,56.71
2022-11-19T04:36:58.120Z,56.65
2022-11-19T04:39:25.560Z,56.59
2022-11-19T04:41:54.335Z,56.52
2022-11-19T04:44:21.752Z,56.51
2022-11-19T04:46:49.186Z,56.42
2022-11-19T04:49:16.860Z,56.63
2022-11-19T04:51:44.549Z,56.31
2022-11-19T04:54:13.016Z,56.43
2022-11-19T04:56:40.464Z,56.50
2022-11-19T04:59:09.526Z,56.27
2022-11-19T05:01:37.156Z,56.36
2022-11-19T05:04:04.824Z,56.25
2022-11-19T05:06:33.311Z,56.23
2022-11-19T05:09:00.739Z,56.32
2022-11-19T05:11:28.176Z,56.21
2022-11-19T05:13:55.625Z,56.17
2022-11-19T05:16:24.397Z,56.13
2022-11-19T05:18:51.838Z,56.29
2022-11-19T05:21:19.282Z,56.09
2022-11-19T05:23:46.731Z,56.11
2022-11-19T05:26:14.170Z,56.10
2022-11-19T05:28:41.634Z,56.12
2022-11-19T05:31:09.437Z,56.23
2022-11-19T05:33:38.212Z,56.17
2022-11-19T05:36:06.485Z,56.13
2022-11-19T05:38:33.944Z,55.82
2022-11-19T05:41:01.396Z,56.05
2022-11-19T05:43:28.858Z,55.77
2022-11-19T05:45:56.307Z,56.05
2022-11-19T05:48:23.735Z,55.98
2022-11-19T05:50:52.500Z,55.77
2022-11-19T05:53:19.941Z,56.05
2022-11-19T05:55:47.356Z,55.96
2022-11-19T05:58:14.810Z,55.94
2022-11-19T06:00:42.273Z,55.87
2022-11-19T06:03:10.008Z,56.04
2022-11-19T06:05:40.629Z,55.86
2022-11-19T06:08:09.663Z,55.97
2022-11-19T06:10:37.131Z,55.82
2022-11-19T06:13:04.667Z,55.56
2022-11-19T06:15:32.107Z,55.68
2022-11-19T06:17:59.575Z,55.80
2022-11-19T06:20:27.029Z,55.48
2022-11-19T06:22:54.541Z,55.52
2022-11-19T06:25:23.331Z,55.58
2022-11-19T06:27:50.857Z,55.69
2022-11-19T06:30:18.360Z,55.72
2022-11-19T06:32:45.804Z,55.76
2022-11-19T06:35:14.409Z,55.55
2022-11-19T06:37:42.171Z,55.56
2022-11-19T06:40:10.790Z,55.64
2022-11-19T06:42:39.562Z,55.71
2022-11-19T06:45:08.025Z,55.49
2022-11-19T06:47:35.487Z,55.70
2022-11-19T06:50:02.957Z,55.59
2022-11-19T06:52:30.411Z,55.69
2022-11-19T06:54:57.855Z,55.72
2022-11-19T06:57:25.750Z,55.57
2022-11-19T06:59:54.534Z,55.69
2022-11-19T07:02:22.036Z,55.65
2022-11-19T07:04:49.536Z,55.51
2022-11-19T07:07:17.050Z,55.71
2022-11-19T07:09:44.576Z,55.55
2022-11-19T07:12:12.002Z,55.49
2022-11-19T07:14:39.439Z,55.28
2022-11-19T07:17:08.226Z,55.40
2022-11-19T07:19:35.664Z,55.44
2022-11-19T07:22:03.114Z,55.25
2022-11-19T07:24:30.811Z,55.31
2022-11-19T07:26:58.252Z,55.38
2022-11-19T07:29:25.707Z,55.31
2022-11-19T07:31:53.299Z,55.16
2022-11-19T07:34:22.079Z,55.23
2022-11-19T07:36:49.993Z,55.29
2022-11-19T07:39:18.083Z,55.10
2022-11-19T07:42:03.560Z,55.19
2022-11-19T07:44:31.043Z,55.21
2022-11-19T07:46:58.639Z,55.21
2022-11-19T07:49:27.450Z,55.01
2022-11-19T07:51:54.978Z,55.30
2022-11-19T07:54:22.415Z,55.04
2022-11-19T07:56:49.866Z,55.06
2022-11-19T07:59:17.783Z,55.06
2022-11-19T08:01:45.403Z,54.85
2022-11-19T08:04:12.919Z,54.70
2022-11-19T08:06:41.701Z,54.57
2022-11-19T08:09:09.149Z,54.76
2022-11-19T08:11:36.595Z,54.85
2022-11-19T08:14:04.054Z,54.60
2022-11-19T08:16:50.695Z,54.69
2022-11-19T08:19:18.771Z,54.84
2022-11-19T08:21:47.869Z,54.74
2022-11-19T08:24:15.852Z,54.65
2022-11-19T08:26:43.300Z,54.49
2022-11-19T08:29:15.981Z,54.69
2022-11-19T08:31:44.356Z,54.73
2022-11-19T08:34:11.787Z,54.67
2022-11-19T08:36:39.536Z,54.73
2022-11-19T08:39:08.361Z,54.61
2022-11-19T08:41:58.532Z,54.62
2022-11-19T08:44:25.837Z,54.68
2022-11-19T08:46:53.308Z,54.61
2022-11-19T08:49:20.945Z,54.69
2022-11-19T08:51:48.449Z,54.56
2022-11-19T08:54:17.821Z,54.66
2022-11-19T08:56:45.551Z,54.56
2022-11-19T08:59:12.991Z,54.63
2022-11-19T09:01:40.465Z,54.68
2022-11-19T09:04:07.916Z,54.64
2022-11-19T09:06:35.643Z,54.68
2022-11-19T09:09:03.104Z,54.78
2022-11-19T09:11:31.911Z,54.61
2022-11-19T09:13:59.377Z,54.45
2022-11-19T09:16:26.826Z,54.61
2022-11-19T09:18:54.269Z,54.38
2022-11-19T09:21:21.729Z,54.60
2022-11-19T09:23:49.163Z,54.36
2022-11-19T09:26:17.417Z,54.51
2022-11-19T09:28:46.340Z,54.57
2022-11-19T09:31:14.617Z,54.23
2022-11-19T09:33:42.995Z,54.33
2022-11-19T09:36:11.125Z,54.35
2022-11-19T09:38:39.253Z,54.34
2022-11-19T09:41:16.256Z,54.37
2022-11-19T09:43:48.573Z,54.12
2022-11-19T09:46:18.182Z,54.20
2022-11-19T09:48:46.016Z,54.29
2022-11-19T09:51:15.005Z,54.19
2022-11-19T09:53:43.827Z,54.15
2022-11-19T09:56:11.967Z,54.23
2022-11-19T09:58:40.278Z,54.34
2022-11-19T10:01:11.961Z,54.28
2022-11-19T10:03:39.417Z,54.37
2022-11-19T10:06:18.830Z,54.38
2022-11-19T10:09:02.817Z,54.24
2022-11-19T10:11:37.181Z,54.15
2022-11-19T10:14:09.254Z,54.11
2022-11-19T10:16:44.661Z,53.86
2022-11-19T10:19:17.130Z,53.71
2022-11-19T10:21:47.789Z,53.92
2022-11-19T10:24:18.132Z,53.35
2022-11-19T10:26:48.345Z,53.48
2022-11-19T10:29:17.186Z,53.37
2022-11-19T10:31:47.441Z,53.05
2022-11-19T10:34:17.663Z,53.04
2022-11-19T10:36:46.493Z,52.82
2022-11-19T10:39:18.015Z,52.81
2022-11-19T10:41:47.920Z,52.75
2022-11-19T10:44:40.157Z,52.47
2022-11-19T10:47:11.733Z,52.40
2022-11-19T10:49:40.484Z,52.41
2022-11-19T10:52:12.144Z,52.66
2022-11-19T10:54:39.742Z,52.51
2022-11-19T10:57:08.640Z,52.40
2022-11-19T10:59:36.586Z,52.35
2022-11-19T11:02:04.810Z,52.53
2022-11-19T11:04:33.573Z,52.44
2022-11-19T11:07:01.833Z,52.31
2022-11-19T11:09:33.997Z,52.26
2022-11-19T11:12:22.106Z,52.47
2022-11-19T11:14:55.631Z,52.64
2022-11-19T11:17:24.732Z,52.57
2022-11-19T11:20:04.664Z,52.63
2022-11-19T11:22:32.099Z,52.44
2022-11-19T11:25:04.260Z,52.64
2022-11-19T11:27:35.867Z,52.53
2022-11-19T11:30:06.740Z,52.84
2022-11-19T11:32:34.405Z,52.92
2022-11-19T11:35:07.508Z,52.84
2022-11-19T11:37:36.559Z,52.86
2022-11-19T11:40:04.935Z,52.83
2022-11-19T11:42:32.369Z,52.77
2022-11-19T11:45:00.510Z,52.83
2022-11-19T11:47:29.264Z,52.47
2022-11-19T11:49:58.608Z,52.92
2022-11-19T11:52:29.196Z,52.93
2022-11-19T11:55:01.215Z,52.83
2022-11-19T11:57:29.766Z,52.90
2022-11-19T11:59:57.326Z,53.09
2022-11-19T12:02:29.901Z,52.88
2022-11-19T12:04:57.854Z,53.00
2022-11-19T12:07:35.785Z,52.67
2022-11-19T12:10:08.694Z,52.56
2022-11-19T12:12:38.226Z,52.89
2022-11-19T12:15:10.499Z,52.79
2022-11-19T12:17:42.541Z,52.51
2022-11-19T12:20:22.440Z,52.68
2022-11-19T12:22:59.192Z,52.43
2022-11-19T12:25:30.464Z,52.58
2022-11-19T12:28:20.453Z,52.50
2022-11-19T12:30:54.778Z,53.02
2022-11-19T12:33:27.349Z,52.95
2022-11-19T12:35:57.640Z,53.12
2022-11-19T12:38:36.010Z,52.98
2022-11-19T12:41:12.358Z,52.82
2022-11-19T12:43:48.656Z,52.82
2022-11-19T12:46:19.293Z,52.46
2022-11-19T12:48:53.521Z,52.52
2022-11-19T12:51:26.403Z,52.49
2022-11-19T12:54:06.738Z,52.29
2022-11-19T12:56:40.369Z,52.18
2022-11-19T12:59:12.908Z,52.24
2022-11-19T13:01:41.503Z,52.11
2022-11-19T13:04:12.832Z,52.38
2022-11-19T13:06:43.867Z,52.25
2022-11-19T13:09:16.414Z,52.37
2022-11-19T13:11:45.008Z,52.40
2022-11-19T13:14:14.949Z,52.42
2022-11-19T13:16:42.396Z,52.43
2022-11-19T13:19:18.698Z,52.51
2022-11-19T13:21:48.945Z,52.40
2022-11-19T13:24:25.264Z,52.36
2022-11-19T13:26:52.826Z,52.56
2022-11-19T13:29:27.951Z,52.18
2022-11-19T13:31:57.040Z,52.34
2022-11-19T13:34:26.814Z,52.41
2022-11-19T13:36:59.619Z,52.54
2022-11-19T13:39:32.092Z,52.61
2022-11-19T13:42:17.492Z,52.64
2022-11-19T13:44:44.971Z,52.72
2022-11-19T13:47:14.899Z,52.52
2022-11-19T13:49:43.708Z,52.75
2022-11-19T13:52:11.664Z,52.74
2022-11-19T13:54:40.938Z,52.49
2022-11-19T13:57:09.241Z,52.49
2022-11-19T13:59:38.525Z,52.73
2022-11-19T14:02:16.410Z,52.39
2022-11-19T14:05:04.394Z,52.40
2022-11-19T14:07:42.518Z,52.60
2022-11-19T14:10:16.383Z,52.29
2022-11-19T14:13:08.035Z,52.12
2022-11-19T14:16:01.488Z,52.51
2022-11-19T14:18:53.053Z,52.69
2022-11-19T14:22:03.864Z,52.75
2022-11-19T14:25:14.445Z,52.93
2022-11-19T14:27:43.617Z,52.92
2022-11-19T14:30:19.534Z,52.88
2022-11-19T14:32:51.174Z,52.83
2022-11-19T14:35:33.229Z,52.72
2022-11-19T14:38:36.220Z,52.65
2022-11-19T14:41:15.464Z,52.67
2022-11-19T14:44:09.640Z,52.93
2022-11-19T14:46:44.878Z,53.16
2022-11-19T14:49:32.813Z,53.05
2022-11-19T14:52:00.336Z,53.17
2022-11-19T14:54:32.284Z,53.33
2022-11-19T14:57:05.382Z,53.24
2022-11-19T14:59:36.249Z,53.23
2022-11-19T15:02:06.207Z,53.36
2022-11-19T15:04:35.661Z,53.26
2022-11-19T15:07:03.501Z,53.55
2022-11-19T15:09:52.884Z,53.56
2022-11-19T15:12:20.738Z,53.68
2022-11-19T15:15:03.495Z,53.52
2022-11-19T15:17:30.974Z,53.84
2022-11-19T15:20:09.553Z,53.66
2022-11-19T15:22:42.789Z,53.77
2022-11-19T15:25:31.976Z,53.77
2022-11-19T15:28:02.689Z,53.83
2022-11-19T15:30:40.895Z,53.86
2022-11-19T15:33:38.413Z,53.76
2022-11-19T15:36:16.712Z,54.26
2022-11-19T15:38:44.813Z,53.90
2022-11-19T15:41:14.106Z,54.02
2022-11-19T15:43:43.053Z,53.91
2022-11-19T15:46:13.354Z,54.12
2022-11-19T15:48:43.768Z,54.13
2022-11-19T15:51:13.078Z,53.97
2022-11-19T15:53:40.512Z,54.09
2022-11-19T15:56:08.960Z,54.32
2022-11-19T15:58:40.122Z,54.23
2022-11-19T16:01:08.620Z,54.10
2022-11-19T16:03:37.776Z,54.25
2022-11-19T16:06:08.300Z,53.99
2022-11-19T16:08:35.772Z,54.08
2022-11-19T16:11:20.949Z,54.03
2022-11-19T16:14:09.329Z,54.30
2022-11-19T16:16:54.584Z,54.34
2022-11-19T16:19:23.688Z,54.28
2022-11-19T16:21:53.295Z,54.25
2022-11-19T16:24:38.295Z,54.26
2022-11-19T16:27:05.884Z,54.21
2022-11-19T16:29:34.394Z,54.33
2022-11-19T16:32:01.857Z,54.25
2022-11-19T16:34:31.153Z,54.16
2022-11-19T16:36:58.621Z,54.54
2022-11-19T16:39:27.209Z,54.52
2022-11-19T16:42:15.687Z,54.28
2022-11-19T16:44:43.664Z,54.35
2022-11-19T16:47:15.883Z,54.32
2022-11-19T16:50:09.432Z,54.42
2022-11-19T16:52:41.394Z,54.36
2022-11-19T16:55:40.210Z,54.27
2022-11-19T16:58:15.217Z,54.39
2022-11-19T17:00:43.783Z,54.22
2022-11-19T17:03:20.466Z,54.11
2022-11-19T17:05:50.759Z,54.32
2022-11-19T17:08:21.653Z,54.39
2022-11-19T17:10:49.113Z,54.29
2022-11-19T17:13:27.746Z,54.42
2022-11-19T17:15:55.616Z,54.39
2022-11-19T17:18:27.953Z,54.10
2022-11-19T17:20:57.066Z,54.44
2022-11-19T17:23:25.441Z,54.30
2022-11-19T17:25:54.063Z,54.21
2022-11-19T17:28:26.137Z,54.04
2022-11-19T17:30:53.900Z,54.10
2022-11-19T17:33:22.797Z,54.15
2022-11-19T17:35:51.631Z,54.01
2022-11-19T17:38:21.379Z,54.14
2022-11-19T17:40:49.523Z,54.07
2022-11-19T17:43:35.923Z,54.23
2022-11-19T17:46:03.424Z,54.21
2022-11-19T17:48:30.945Z,54.30
2022-11-19T17:50:58.608Z,54.20
2022-11-19T17:53:27.377Z,54.26
2022-11-19T17:55:55.077Z,53.97
2022-11-19T17:58:22.554Z,54.02
2022-11-19T18:00:50.035Z,54.19
2022-11-19T18:03:17.643Z,54.08
2022-11-19T18:05:47.273Z,54.08
2022-11-19T18:08:14.986Z,53.82
2022-11-19T18:10:44.578Z,54.05
2022-11-19T18:13:12.800Z,54.11
2022-11-19T18:15:40.292Z,54.08
2022-11-19T18:18:07.766Z,53.96
2022-11-19T18:20:35.236Z,53.95
2022-11-19T18:23:02.687Z,54.03
2022-11-19T18:25:30.169Z,53.71
2022-11-19T18:27:58.924Z,54.03
2022-11-19T18:30:26.392Z,53.81
2022-11-19T18:32:53.853Z,54.02
2022-11-19T18:35:22.353Z,53.96
2022-11-19T18:37:49.821Z,54.10
2022-11-19T18:40:17.468Z,53.98
2022-11-19T18:42:58.993Z,53.82
2022-11-19T18:45:27.756Z,53.73
2022-11-19T18:47:55.255Z,53.88
2022-11-19T18:50:29.401Z,53.76
2022-11-19T18:52:57.526Z,53.87
2022-11-19T18:55:24.974Z,53.79
2022-11-19T18:57:52.400Z,53.85
2022-11-19T19:00:20.399Z,53.86
2022-11-19T19:02:49.172Z,53.93
2022-11-19T19:05:16.780Z,53.67
2022-11-19T19:07:44.289Z,53.81
2022-11-19T19:10:11.778Z,53.95
2022-11-19T19:12:39.228Z,53.92
2022-11-19T19:15:07.328Z,53.81
2022-11-19T19:17:34.755Z,53.88
2022-11-19T19:20:03.535Z,53.70
2022-11-19T19:22:31.024Z,53.71
2022-11-19T19:24:58.678Z,53.72
2022-11-19T19:27:26.222Z,53.70
2022-11-19T19:29:53.686Z,53.69
2022-11-19T19:32:21.200Z,53.72
2022-11-19T19:34:48.651Z,53.63
2022-11-19T19:37:17.408Z,53.67
2022-11-19T19:39:44.831Z,53.40
2022-11-19T19:42:12.376Z,53.61
2022-11-19T19:44:39.795Z,53.62
2022-11-19T19:47:07.231Z,53.38
2022-11-19T19:49:38.641Z,53.54
2022-11-19T19:52:06.605Z,53.72
2022-11-19T19:54:35.376Z,53.46
2022-11-19T19:57:02.832Z,53.50
2022-11-19T19:59:30.266Z,53.47
2022-11-19T20:01:57.805Z,53.36
2022-11-19T20:04:25.308Z,53.27
2022-11-19T20:06:54.243Z,53.32
2022-11-19T20:09:21.680Z,53.48
2022-11-19T20:11:50.456Z,53.41
2022-11-19T20:14:17.875Z,53.21
2022-11-19T20:16:45.337Z,53.29
2022-11-19T20:19:13.566Z,53.38
2022-11-19T20:21:41.039Z,53.23
2022-11-19T20:24:12.665Z,53.26
2022-11-19T20:26:41.108Z,53.17
2022-11-19T20:29:11.548Z,53.28
2022-11-19T20:31:39.003Z,53.26
2022-11-19T20:34:06.473Z,53.39
2022-11-19T20:36:34.945Z,53.32
2022-11-19T20:39:02.412Z,53.22
2022-11-19T20:41:47.867Z,53.12
2022-11-19T20:44:23.338Z,53.07
2022-11-19T20:46:52.049Z,53.16
2022-11-19T20:49:20.392Z,53.09
2022-11-19T20:51:48.032Z,53.24
2022-11-19T20:54:15.507Z,53.06
2022-11-19T20:56:43.131Z,53.20
2022-11-19T20:59:10.664Z,53.04
2022-11-19T21:01:39.713Z,53.06
2022-11-19T21:04:07.300Z,53.08
2022-11-19T21:06:34.757Z,53.21
2022-11-19T21:09:02.213Z,53.02
2022-11-19T21:11:29.716Z,53.07
2022-11-19T21:13:57.268Z,52.97
2022-11-19T21:16:25.238Z,53.01
2022-11-19T21:18:53.979Z,52.90
2022-11-19T21:21:22.024Z,52.97
2022-11-19T21:23:49.451Z,52.92
2022-11-19T21:26:18.130Z,52.91
2022-11-19T21:28:46.586Z,52.91
2022-11-19T21:31:14.151Z,52.93
2022-11-19T21:33:41.623Z,52.76
2022-11-19T21:36:11.469Z,52.93
2022-11-19T21:38:39.308Z,52.80
2022-11-19T21:41:07.166Z,52.82
2022-11-19T21:43:35.109Z,52.87
2022-11-19T21:46:02.577Z,52.63
2022-11-19T21:48:30.024Z,52.99
2022-11-19T21:50:57.472Z,52.72
2022-11-19T21:53:26.284Z,52.71
2022-11-19T21:55:53.727Z,52.70
2022-11-19T21:58:21.164Z,52.72
2022-11-19T22:00:48.624Z,52.74
2022-11-19T22:03:16.177Z,52.78
2022-11-19T22:05:43.634Z,52.64
2022-11-19T22:08:11.088Z,52.67
2022-11-19T22:10:45.245Z,52.82
2022-11-19T22:13:13.016Z,52.77
2022-11-19T22:15:40.503Z,52.78
2022-11-19T22:18:07.958Z,52.58
2022-11-19T22:20:35.422Z,52.61
2022-11-19T22:23:02.881Z,52.51
2022-11-19T22:25:30.307Z,52.52
2022-11-19T22:27:59.085Z,52.51
2022-11-19T22:30:26.553Z,52.67
2022-11-19T22:32:54.012Z,52.72
2022-11-19T22:35:21.450Z,52.54
2022-11-19T22:37:48.903Z,52.58
2022-11-19T22:40:16.406Z,52.54
2022-11-19T22:42:43.864Z,52.61
2022-11-19T22:45:12.713Z,52.60
2022-11-19T22:47:40.236Z,52.53
2022-11-19T22:50:08.815Z,52.62
2022-11-19T22:52:36.276Z,52.48
2022-11-19T22:55:03.691Z,52.47
2022-11-19T22:57:31.113Z,52.35
2022-11-19T22:59:58.551Z,52.39
2022-11-19T23:02:27.317Z,52.50
2022-11-19T23:04:54.752Z,52.33
2022-11-19T23:07:22.248Z,52.33
2022-11-19T23:09:49.716Z,52.33
2022-11-19T23:12:34.991Z,52.31
2022-11-19T23:15:02.436Z,52.39
2022-11-19T23:17:31.196Z,52.13
2022-11-19T23:20:03.198Z,52.25
2022-11-19T23:22:32.159Z,52.21
2022-11-19T23:24:59.614Z,52.30
2022-11-19T23:27:27.084Z,52.20
2022-11-19T23:29:54.967Z,52.19
2022-11-19T23:32:22.404Z,52.34
2022-11-19T23:34:51.171Z,52.31
2022-11-19T23:37:19.065Z,52.27
2022-11-19T23:39:46.554Z,52.25
2022-11-19T23:42:13.993Z,52.18
2022-11-19T23:44:41.432Z,52.18
2022-11-19T23:47:08.887Z,52.08
2022-11-19T23:49:36.354Z,52.02
2022-11-19T23:52:05.444Z,51.98
2022-11-19T23:54:32.959Z,51.95
2022-11-19T23:57:00.499Z,52.01
2022-11-19T23:59:28.128Z,52.03
